sensor_id;sensor_type;location;lat;lon;timestamp;temperature;humidity
23815;DHT22;12088;53.078;8.720;2022-10-23T00:01:31;10.60;99.90
23815;DHT22;12088;53.078;8.720;2022-10-23T00:04:03;10.60;99.90
23815;DHT22;12088;53.078;8.720;2022-10-23T00:06:31;10.60;99.90
23815;DHT22;12088;53.078;8.720;2022-10-23T00:08:58;10.70;99.90
23815;DHT22;12088;53.078;8.720;2022-10-23T00:11:26;10.70;99.90
23815;DHT22;12088;53.078;8.720;2022-10-23T00:13:54;10.70;99.90
23815;DHT22;12088;53.078;8.720;2022-10-23T00:16:20;10.60;99.90
23815;DHT22;12088;53.078;8.720;2022-10-23T00:18:45;10.50;99.90
23815;DHT22;12088;53.078;8.720;2022-10-23T00:21:13;10.50;99.90
23815;DHT22;12088;53.078;8.720;2022-10-23T00:23:39;10.40;99.90
23815;DHT22;12088;53.078;8.720;2022-10-23T00:26:07;10.40;99.90
23815;DHT22;12088;53.078;8.720;2022-10-23T00:28:33;10.40;99.90
23815;DHT22;12088;53.078;8.720;2022-10-23T00:31:04;10.40;99.90
23815;DHT22;12088;53.078;8.720;2022-10-23T00:33:30;10.40;99.90
23815;DHT22;12088;53.078;8.720;2022-10-23T00:35:56;10.60;99.90
23815;DHT22;12088;53.078;8.720;2022-10-23T00:38:22;10.50;99.90
23815;DHT22;12088;53.078;8.720;2022-10-23T00:40:48;10.80;99.90
23815;DHT22;12088;53.078;8.720;2022-10-23T00:43:19;10.80;99.90
23815;DHT22;12088;53.078;8.720;2022-10-23T00:45:45;10.90;99.90
23815;DHT22;12088;53.078;8.720;2022-10-23T00:48:11;10.90;99.90
23815;DHT22;12088;53.078;8.720;2022-10-23T00:50:37;10.80;99.90
23815;DHT22;12088;53.078;8.720;2022-10-23T00:53:03;11.00;99.90
23815;DHT22;12088;53.078;8.720;2022-10-23T00:55:29;11.10;99.90
23815;DHT22;12088;53.078;8.720;2022-10-23T00:57:56;11.10;99.90
23815;DHT22;12088;53.078;8.720;2022-10-23T01:00:29;11.10;99.90
23815;DHT22;12088;53.078;8.720;2022-10-23T01:02:56;10.80;99.90
23815;DHT22;12088;53.078;8.720;2022-10-23T01:05:28;10.70;99.90
23815;DHT22;12088;53.078;8.720;2022-10-23T01:10:40;10.50;99.90
23815;DHT22;12088;53.078;8.720;2022-10-23T01:15:52;10.30;99.90
23815;DHT22;12088;53.078;8.720;2022-10-23T01:18:33;10.30;99.90
23815;DHT22;12088;53.078;8.720;2022-10-23T01:21:07;10.30;99.90
23815;DHT22;12088;53.078;8.720;2022-10-23T01:27:38;10.30;99.90
23815;DHT22;12088;53.078;8.720;2022-10-23T01:30:06;10.50;99.90
23815;DHT22;12088;53.078;8.720;2022-10-23T01:35:10;10.60;99.90
23815;DHT22;12088;53.078;8.720;2022-10-23T01:37:52;10.60;99.90
23815;DHT22;12088;53.078;8.720;2022-10-23T01:40:23;10.50;99.90
23815;DHT22;12088;53.078;8.720;2022-10-23T01:42:54;10.50;99.90
23815;DHT22;12088;53.078;8.720;2022-10-23T01:45:39;10.40;99.90
23815;DHT22;12088;53.078;8.720;2022-10-23T01:48:08;10.40;99.90
23815;DHT22;12088;53.078;8.720;2022-10-23T01:50:35;10.50;99.90
23815;DHT22;12088;53.078;8.720;2022-10-23T01:53:03;10.50;99.90
23815;DHT22;12088;53.078;8.720;2022-10-23T01:55:31;10.50;99.90
23815;DHT22;12088;53.078;8.720;2022-10-23T01:57:57;10.50;99.90
23815;DHT22;12088;53.078;8.720;2022-10-23T02:00:24;10.50;99.90
23815;DHT22;12088;53.078;8.720;2022-10-23T02:02:51;10.40;99.90
23815;DHT22;12088;53.078;8.720;2022-10-23T02:05:18;10.40;99.90
23815;DHT22;12088;53.078;8.720;2022-10-23T02:07:45;10.30;99.90
23815;DHT22;12088;53.078;8.720;2022-10-23T02:10:11;10.20;99.90
23815;DHT22;12088;53.078;8.720;2022-10-23T02:13:08;10.20;99.90
23815;DHT22;12088;53.078;8.720;2022-10-23T02:15:37;10.40;99.90
23815;DHT22;12088;53.078;8.720;2022-10-23T02:18:35;10.40;99.90
23815;DHT22;12088;53.078;8.720;2022-10-23T02:21:08;10.20;99.90
23815;DHT22;12088;53.078;8.720;2022-10-23T02:23:48;10.10;99.90
23815;DHT22;12088;53.078;8.720;2022-10-23T02:26:30;10.00;99.90
23815;DHT22;12088;53.078;8.720;2022-10-23T02:31:31;9.90;99.90
23815;DHT22;12088;53.078;8.720;2022-10-23T02:33:56;9.90;99.90
23815;DHT22;12088;53.078;8.720;2022-10-23T02:36:22;9.90;99.90
23815;DHT22;12088;53.078;8.720;2022-10-23T02:38:48;10.00;99.90
23815;DHT22;12088;53.078;8.720;2022-10-23T02:44:38;10.10;99.90
23815;DHT22;12088;53.078;8.720;2022-10-23T02:49:58;9.90;99.90
23815;DHT22;12088;53.078;8.720;2022-10-23T02:52:56;9.80;99.90
23815;DHT22;12088;53.078;8.720;2022-10-23T02:56:11;9.80;99.90
23815;DHT22;12088;53.078;8.720;2022-10-23T03:01:07;10.00;99.90
23815;DHT22;12088;53.078;8.720;2022-10-23T03:03:37;9.90;99.90
23815;DHT22;12088;53.078;8.720;2022-10-23T03:06:04;9.90;99.90
23815;DHT22;12088;53.078;8.720;2022-10-23T03:08:29;9.80;99.90
23815;DHT22;12088;53.078;8.720;2022-10-23T03:11:04;9.70;99.90
23815;DHT22;12088;53.078;8.720;2022-10-23T03:13:30;9.60;99.90
23815;DHT22;12088;53.078;8.720;2022-10-23T03:15:56;9.60;99.90
23815;DHT22;12088;53.078;8.720;2022-10-23T03:18:21;9.60;99.90
23815;DHT22;12088;53.078;8.720;2022-10-23T03:20:47;9.60;99.90
23815;DHT22;12088;53.078;8.720;2022-10-23T03:23:12;9.60;99.90
23815;DHT22;12088;53.078;8.720;2022-10-23T03:25:38;9.50;99.90
23815;DHT22;12088;53.078;8.720;2022-10-23T03:28:04;9.50;99.90
23815;DHT22;12088;53.078;8.720;2022-10-23T03:30:29;9.50;99.90
23815;DHT22;12088;53.078;8.720;2022-10-23T03:32:55;9.50;99.90
23815;DHT22;12088;53.078;8.720;2022-10-23T03:35:20;9.40;99.90
23815;DHT22;12088;53.078;8.720;2022-10-23T03:37:46;9.50;99.90
23815;DHT22;12088;53.078;8.720;2022-10-23T03:40:11;9.50;99.90
23815;DHT22;12088;53.078;8.720;2022-10-23T03:42:37;9.50;99.90
23815;DHT22;12088;53.078;8.720;2022-10-23T03:45:03;9.50;99.90
23815;DHT22;12088;53.078;8.720;2022-10-23T03:47:29;9.50;99.90
23815;DHT22;12088;53.078;8.720;2022-10-23T03:49:56;9.40;99.90
23815;DHT22;12088;53.078;8.720;2022-10-23T03:52:22;9.30;99.90
23815;DHT22;12088;53.078;8.720;2022-10-23T03:54:47;9.30;99.90
23815;DHT22;12088;53.078;8.720;2022-10-23T03:57:13;9.30;99.90
23815;DHT22;12088;53.078;8.720;2022-10-23T03:59:39;9.40;99.90
23815;DHT22;12088;53.078;8.720;2022-10-23T04:02:04;9.40;99.90
23815;DHT22;12088;53.078;8.720;2022-10-23T04:04:30;9.40;99.90
23815;DHT22;12088;53.078;8.720;2022-10-23T04:06:55;9.30;99.90
23815;DHT22;12088;53.078;8.720;2022-10-23T04:09:21;9.40;99.90
23815;DHT22;12088;53.078;8.720;2022-10-23T04:11:47;9.50;99.90
23815;DHT22;12088;53.078;8.720;2022-10-23T04:14:13;9.50;99.90
23815;DHT22;12088;53.078;8.720;2022-10-23T04:16:39;9.40;99.90
23815;DHT22;12088;53.078;8.720;2022-10-23T04:19:05;9.40;99.90
23815;DHT22;12088;53.078;8.720;2022-10-23T04:21:30;9.40;99.90
23815;DHT22;12088;53.078;8.720;2022-10-23T04:23:56;9.30;99.90
23815;DHT22;12088;53.078;8.720;2022-10-23T04:26:22;9.30;99.90
23815;DHT22;12088;53.078;8.720;2022-10-23T04:28:47;9.10;99.90
23815;DHT22;12088;53.078;8.720;2022-10-23T04:31:13;9.00;99.90
23815;DHT22;12088;53.078;8.720;2022-10-23T04:33:39;9.00;99.90
23815;DHT22;12088;53.078;8.720;2022-10-23T04:36:04;8.90;99.90
23815;DHT22;12088;53.078;8.720;2022-10-23T04:38:30;8.90;99.90
23815;DHT22;12088;53.078;8.720;2022-10-23T04:40:56;9.00;99.90
23815;DHT22;12088;53.078;8.720;2022-10-23T04:43:21;8.90;99.90
23815;DHT22;12088;53.078;8.720;2022-10-23T04:45:48;8.90;99.90
23815;DHT22;12088;53.078;8.720;2022-10-23T04:48:14;8.90;99.90
23815;DHT22;12088;53.078;8.720;2022-10-23T04:50:39;8.90;99.90
23815;DHT22;12088;53.078;8.720;2022-10-23T04:53:05;8.90;99.90
23815;DHT22;12088;53.078;8.720;2022-10-23T04:55:31;9.00;99.90
23815;DHT22;12088;53.078;8.720;2022-10-23T04:57:56;9.00;99.90
23815;DHT22;12088;53.078;8.720;2022-10-23T05:00:22;8.90;99.90
23815;DHT22;12088;53.078;8.720;2022-10-23T05:02:48;9.00;99.90
23815;DHT22;12088;53.078;8.720;2022-10-23T05:05:14;9.10;99.90
23815;DHT22;12088;53.078;8.720;2022-10-23T05:07:39;9.10;99.90
23815;DHT22;12088;53.078;8.720;2022-10-23T05:10:05;9.10;99.90
23815;DHT22;12088;53.078;8.720;2022-10-23T05:12:31;9.10;99.90
23815;DHT22;12088;53.078;8.720;2022-10-23T05:14:57;9.20;99.90
23815;DHT22;12088;53.078;8.720;2022-10-23T05:17:36;9.20;99.90
23815;DHT22;12088;53.078;8.720;2022-10-23T05:20:08;9.20;99.90
23815;DHT22;12088;53.078;8.720;2022-10-23T05:22:36;9.20;99.90
23815;DHT22;12088;53.078;8.720;2022-10-23T05:25:04;9.30;99.90
23815;DHT22;12088;53.078;8.720;2022-10-23T05:27:30;9.30;99.90
23815;DHT22;12088;53.078;8.720;2022-10-23T05:29:55;9.20;99.90
23815;DHT22;12088;53.078;8.720;2022-10-23T05:32:24;9.20;99.90
23815;DHT22;12088;53.078;8.720;2022-10-23T05:34:51;9.30;99.90
23815;DHT22;12088;53.078;8.720;2022-10-23T05:37:17;9.20;99.90
23815;DHT22;12088;53.078;8.720;2022-10-23T05:39:43;9.20;99.90
23815;DHT22;12088;53.078;8.720;2022-10-23T05:42:08;9.20;99.90
23815;DHT22;12088;53.078;8.720;2022-10-23T05:44:34;9.10;99.90
23815;DHT22;12088;53.078;8.720;2022-10-23T05:47:01;9.10;99.90
23815;DHT22;12088;53.078;8.720;2022-10-23T05:49:26;9.10;99.90
23815;DHT22;12088;53.078;8.720;2022-10-23T05:51:52;9.10;99.90
23815;DHT22;12088;53.078;8.720;2022-10-23T05:54:17;9.10;99.90
23815;DHT22;12088;53.078;8.720;2022-10-23T05:56:43;9.10;99.90
23815;DHT22;12088;53.078;8.720;2022-10-23T05:59:09;9.00;99.90
23815;DHT22;12088;53.078;8.720;2022-10-23T06:01:35;9.10;99.90
23815;DHT22;12088;53.078;8.720;2022-10-23T06:04:03;9.10;99.90
23815;DHT22;12088;53.078;8.720;2022-10-23T06:06:28;9.10;99.90
23815;DHT22;12088;53.078;8.720;2022-10-23T06:08:54;9.10;99.90
23815;DHT22;12088;53.078;8.720;2022-10-23T06:11:20;9.10;99.90
23815;DHT22;12088;53.078;8.720;2022-10-23T06:13:46;9.10;99.90
23815;DHT22;12088;53.078;8.720;2022-10-23T06:16:18;9.10;99.90
23815;DHT22;12088;53.078;8.720;2022-10-23T06:18:44;9.10;99.90
23815;DHT22;12088;53.078;8.720;2022-10-23T06:21:11;9.20;99.90
23815;DHT22;12088;53.078;8.720;2022-10-23T06:23:38;9.20;99.90
23815;DHT22;12088;53.078;8.720;2022-10-23T06:26:05;9.20;99.90
23815;DHT22;12088;53.078;8.720;2022-10-23T06:28:30;9.20;99.90
23815;DHT22;12088;53.078;8.720;2022-10-23T06:30:56;9.30;99.90
23815;DHT22;12088;53.078;8.720;2022-10-23T06:33:21;9.30;99.90
23815;DHT22;12088;53.078;8.720;2022-10-23T06:35:47;9.40;99.90
23815;DHT22;12088;53.078;8.720;2022-10-23T06:38:13;9.40;99.90
23815;DHT22;12088;53.078;8.720;2022-10-23T06:40:38;9.50;99.90
23815;DHT22;12088;53.078;8.720;2022-10-23T06:43:04;9.50;99.90
23815;DHT22;12088;53.078;8.720;2022-10-23T06:45:31;9.50;99.90
23815;DHT22;12088;53.078;8.720;2022-10-23T06:47:59;9.60;99.90
23815;DHT22;12088;53.078;8.720;2022-10-23T06:50:25;9.60;99.90
23815;DHT22;12088;53.078;8.720;2022-10-23T06:52:51;9.70;99.90
23815;DHT22;12088;53.078;8.720;2022-10-23T06:55:17;9.70;99.90
23815;DHT22;12088;53.078;8.720;2022-10-23T06:57:43;9.80;99.90
23815;DHT22;12088;53.078;8.720;2022-10-23T07:00:09;9.90;99.90
23815;DHT22;12088;53.078;8.720;2022-10-23T07:02:35;9.90;99.90
23815;DHT22;12088;53.078;8.720;2022-10-23T07:05:01;9.90;99.90
23815;DHT22;12088;53.078;8.720;2022-10-23T07:07:29;10.00;99.90
23815;DHT22;12088;53.078;8.720;2022-10-23T07:09:54;10.10;99.90
23815;DHT22;12088;53.078;8.720;2022-10-23T07:12:20;10.20;99.90
23815;DHT22;12088;53.078;8.720;2022-10-23T07:14:45;10.30;99.90
23815;DHT22;12088;53.078;8.720;2022-10-23T07:17:11;10.40;99.90
23815;DHT22;12088;53.078;8.720;2022-10-23T07:19:36;10.40;99.90
23815;DHT22;12088;53.078;8.720;2022-10-23T07:22:02;10.50;99.90
23815;DHT22;12088;53.078;8.720;2022-10-23T07:24:27;10.60;99.90
23815;DHT22;12088;53.078;8.720;2022-10-23T07:26:53;10.70;99.90
23815;DHT22;12088;53.078;8.720;2022-10-23T07:29:18;10.80;99.90
23815;DHT22;12088;53.078;8.720;2022-10-23T07:31:44;10.90;99.90
23815;DHT22;12088;53.078;8.720;2022-10-23T07:34:10;11.10;99.90
23815;DHT22;12088;53.078;8.720;2022-10-23T07:36:35;11.10;99.90
23815;DHT22;12088;53.078;8.720;2022-10-23T07:39:01;11.20;99.90
23815;DHT22;12088;53.078;8.720;2022-10-23T07:41:26;11.30;99.90
23815;DHT22;12088;53.078;8.720;2022-10-23T07:43:52;11.30;99.90
23815;DHT22;12088;53.078;8.720;2022-10-23T07:46:17;11.40;99.90
23815;DHT22;12088;53.078;8.720;2022-10-23T07:48:43;11.40;99.90
23815;DHT22;12088;53.078;8.720;2022-10-23T07:51:14;11.40;99.90
23815;DHT22;12088;53.078;8.720;2022-10-23T07:53:39;11.60;99.90
23815;DHT22;12088;53.078;8.720;2022-10-23T07:56:14;11.70;99.90
23815;DHT22;12088;53.078;8.720;2022-10-23T07:58:40;11.70;99.90
23815;DHT22;12088;53.078;8.720;2022-10-23T08:01:17;11.90;99.90
23815;DHT22;12088;53.078;8.720;2022-10-23T08:03:43;11.90;99.90
23815;DHT22;12088;53.078;8.720;2022-10-23T08:06:09;11.90;99.90
23815;DHT22;12088;53.078;8.720;2022-10-23T08:08:35;12.10;99.90
23815;DHT22;12088;53.078;8.720;2022-10-23T08:11:00;12.00;99.90
23815;DHT22;12088;53.078;8.720;2022-10-23T08:13:26;12.10;99.90
23815;DHT22;12088;53.078;8.720;2022-10-23T08:15:51;12.00;99.90
23815;DHT22;12088;53.078;8.720;2022-10-23T08:18:17;12.10;99.90
23815;DHT22;12088;53.078;8.720;2022-10-23T08:20:46;12.20;99.90
23815;DHT22;12088;53.078;8.720;2022-10-23T08:23:14;12.20;99.90
23815;DHT22;12088;53.078;8.720;2022-10-23T08:25:41;12.30;99.90
23815;DHT22;12088;53.078;8.720;2022-10-23T08:28:07;12.30;99.90
23815;DHT22;12088;53.078;8.720;2022-10-23T08:30:34;12.20;99.90
23815;DHT22;12088;53.078;8.720;2022-10-23T08:33:03;12.20;99.90
23815;DHT22;12088;53.078;8.720;2022-10-23T08:35:29;12.20;99.90
23815;DHT22;12088;53.078;8.720;2022-10-23T08:37:54;12.20;99.90
23815;DHT22;12088;53.078;8.720;2022-10-23T08:40:23;12.20;99.90
23815;DHT22;12088;53.078;8.720;2022-10-23T08:43:02;12.40;99.90
23815;DHT22;12088;53.078;8.720;2022-10-23T08:45:34;12.40;99.90
23815;DHT22;12088;53.078;8.720;2022-10-23T08:48:09;12.50;99.90
23815;DHT22;12088;53.078;8.720;2022-10-23T08:50:42;12.60;99.90
23815;DHT22;12088;53.078;8.720;2022-10-23T08:53:20;12.90;99.90
23815;DHT22;12088;53.078;8.720;2022-10-23T08:56:02;13.00;99.90
23815;DHT22;12088;53.078;8.720;2022-10-23T09:01:39;13.30;99.90
23815;DHT22;12088;53.078;8.720;2022-10-23T09:04:07;13.20;99.90
23815;DHT22;12088;53.078;8.720;2022-10-23T09:12:04;13.30;99.90
23815;DHT22;12088;53.078;8.720;2022-10-23T09:14:54;13.30;99.90
23815;DHT22;12088;53.078;8.720;2022-10-23T09:17:30;13.70;99.90
23815;DHT22;12088;53.078;8.720;2022-10-23T09:20:20;13.80;99.90
23815;DHT22;12088;53.078;8.720;2022-10-23T09:22:56;13.90;99.90
23815;DHT22;12088;53.078;8.720;2022-10-23T09:25:35;13.70;99.90
23815;DHT22;12088;53.078;8.720;2022-10-23T09:28:01;13.80;99.90
23815;DHT22;12088;53.078;8.720;2022-10-23T09:32:56;14.30;99.90
23815;DHT22;12088;53.078;8.720;2022-10-23T09:35:26;14.50;99.90
23815;DHT22;12088;53.078;8.720;2022-10-23T09:37:52;14.50;99.90
23815;DHT22;12088;53.078;8.720;2022-10-23T09:43:00;15.10;99.90
23815;DHT22;12088;53.078;8.720;2022-10-23T09:45:33;15.50;99.90
23815;DHT22;12088;53.078;8.720;2022-10-23T09:48:11;15.40;99.90
23815;DHT22;12088;53.078;8.720;2022-10-23T09:50:52;15.60;99.90
23815;DHT22;12088;53.078;8.720;2022-10-23T09:56:01;16.10;99.90
23815;DHT22;12088;53.078;8.720;2022-10-23T09:58:35;16.70;99.90
23815;DHT22;12088;53.078;8.720;2022-10-23T10:01:02;16.90;99.90
23815;DHT22;12088;53.078;8.720;2022-10-23T10:03:27;17.20;99.90
23815;DHT22;12088;53.078;8.720;2022-10-23T10:06:02;17.50;99.90
23815;DHT22;12088;53.078;8.720;2022-10-23T10:08:51;17.60;99.90
23815;DHT22;12088;53.078;8.720;2022-10-23T10:16:47;18.00;99.90
23815;DHT22;12088;53.078;8.720;2022-10-23T10:22:31;17.70;99.90
23815;DHT22;12088;53.078;8.720;2022-10-23T10:25:28;17.90;99.90
23815;DHT22;12088;53.078;8.720;2022-10-23T10:30:54;17.10;99.90
23815;DHT22;12088;53.078;8.720;2022-10-23T10:33:27;16.90;99.90
23815;DHT22;12088;53.078;8.720;2022-10-23T10:39:10;16.50;99.90
23815;DHT22;12088;53.078;8.720;2022-10-23T10:42:22;16.40;99.90
23815;DHT22;12088;53.078;8.720;2022-10-23T10:45:18;16.50;99.90
23815;DHT22;12088;53.078;8.720;2022-10-23T10:48:02;16.40;99.90
23815;DHT22;12088;53.078;8.720;2022-10-23T10:50:42;16.60;99.90
23815;DHT22;12088;53.078;8.720;2022-10-23T10:53:22;17.20;99.90
23815;DHT22;12088;53.078;8.720;2022-10-23T10:55:52;17.40;99.90
23815;DHT22;12088;53.078;8.720;2022-10-23T10:58:54;17.40;99.90
23815;DHT22;12088;53.078;8.720;2022-10-23T11:01:29;17.70;99.90
23815;DHT22;12088;53.078;8.720;2022-10-23T11:04:05;17.90;99.90
23815;DHT22;12088;53.078;8.720;2022-10-23T11:06:36;18.30;99.90
23815;DHT22;12088;53.078;8.720;2022-10-23T11:09:15;18.70;99.90
23815;DHT22;12088;53.078;8.720;2022-10-23T11:11:41;18.90;99.90
23815;DHT22;12088;53.078;8.720;2022-10-23T11:14:17;18.70;99.90
23815;DHT22;12088;53.078;8.720;2022-10-23T11:16:56;18.70;99.90
23815;DHT22;12088;53.078;8.720;2022-10-23T11:19:33;18.80;99.90
23815;DHT22;12088;53.078;8.720;2022-10-23T11:35:01;17.50;99.90
23815;DHT22;12088;53.078;8.720;2022-10-23T11:37:29;17.20;99.90
23815;DHT22;12088;53.078;8.720;2022-10-23T11:50:53;17.20;99.90
23815;DHT22;12088;53.078;8.720;2022-10-23T11:53:35;17.20;99.90
23815;DHT22;12088;53.078;8.720;2022-10-23T11:58:44;17.40;99.90
23815;DHT22;12088;53.078;8.720;2022-10-23T12:04:05;17.60;99.90
23815;DHT22;12088;53.078;8.720;2022-10-23T12:12:16;17.50;99.90
23815;DHT22;12088;53.078;8.720;2022-10-23T12:14:50;17.30;99.90
23815;DHT22;12088;53.078;8.720;2022-10-23T12:19:53;17.20;99.90
23815;DHT22;12088;53.078;8.720;2022-10-23T12:22:20;17.40;99.90
23815;DHT22;12088;53.078;8.720;2022-10-23T12:27:49;18.30;99.90
23815;DHT22;12088;53.078;8.720;2022-10-23T12:30:22;18.80;99.90
23815;DHT22;12088;53.078;8.720;2022-10-23T12:33:16;18.80;99.90
23815;DHT22;12088;53.078;8.720;2022-10-23T12:38:26;18.50;99.90
23815;DHT22;12088;53.078;8.720;2022-10-23T12:41:15;18.20;99.90
23815;DHT22;12088;53.078;8.720;2022-10-23T12:43:48;18.00;99.90
23815;DHT22;12088;53.078;8.720;2022-10-23T12:48:52;17.80;99.90
23815;DHT22;12088;53.078;8.720;2022-10-23T12:51:41;17.70;99.90
23815;DHT22;12088;53.078;8.720;2022-10-23T12:54:17;17.50;99.90
23815;DHT22;12088;53.078;8.720;2022-10-23T12:56:44;17.20;99.90
23815;DHT22;12088;53.078;8.720;2022-10-23T12:59:25;17.20;99.90
23815;DHT22;12088;53.078;8.720;2022-10-23T13:01:53;17.10;99.90
23815;DHT22;12088;53.078;8.720;2022-10-23T13:07:00;17.30;99.90
23815;DHT22;12088;53.078;8.720;2022-10-23T13:09:33;17.10;99.90
23815;DHT22;12088;53.078;8.720;2022-10-23T13:12:01;17.10;99.90
23815;DHT22;12088;53.078;8.720;2022-10-23T13:14:41;16.90;99.90
23815;DHT22;12088;53.078;8.720;2022-10-23T13:17:09;16.80;99.90
23815;DHT22;12088;53.078;8.720;2022-10-23T13:19:35;16.90;99.90
23815;DHT22;12088;53.078;8.720;2022-10-23T13:22:18;17.10;99.90
23815;DHT22;12088;53.078;8.720;2022-10-23T13:24:44;16.80;99.90
23815;DHT22;12088;53.078;8.720;2022-10-23T13:29:55;16.80;99.90
23815;DHT22;12088;53.078;8.720;2022-10-23T13:32:23;16.80;99.90
23815;DHT22;12088;53.078;8.720;2022-10-23T13:34:53;16.60;99.90
23815;DHT22;12088;53.078;8.720;2022-10-23T13:37:28;16.50;99.90
23815;DHT22;12088;53.078;8.720;2022-10-23T13:40:25;16.60;99.90
23815;DHT22;12088;53.078;8.720;2022-10-23T13:42:52;16.70;99.90
23815;DHT22;12088;53.078;8.720;2022-10-23T13:45:21;16.80;99.90
23815;DHT22;12088;53.078;8.720;2022-10-23T13:47:48;16.60;99.90
23815;DHT22;12088;53.078;8.720;2022-10-23T13:50:13;16.60;99.90
23815;DHT22;12088;53.078;8.720;2022-10-23T13:52:39;16.60;99.90
23815;DHT22;12088;53.078;8.720;2022-10-23T13:55:21;16.70;99.90
23815;DHT22;12088;53.078;8.720;2022-10-23T13:57:47;16.60;99.90
23815;DHT22;12088;53.078;8.720;2022-10-23T14:00:13;16.70;99.90
23815;DHT22;12088;53.078;8.720;2022-10-23T14:02:40;16.60;99.90
23815;DHT22;12088;53.078;8.720;2022-10-23T14:05:05;16.50;99.90
23815;DHT22;12088;53.078;8.720;2022-10-23T14:07:31;16.50;99.90
23815;DHT22;12088;53.078;8.720;2022-10-23T14:09:57;16.40;99.90
23815;DHT22;12088;53.078;8.720;2022-10-23T14:12:22;16.50;99.90
23815;DHT22;12088;53.078;8.720;2022-10-23T14:14:51;16.60;99.90
23815;DHT22;12088;53.078;8.720;2022-10-23T14:17:18;16.50;99.90
23815;DHT22;12088;53.078;8.720;2022-10-23T14:19:44;16.50;99.90
23815;DHT22;12088;53.078;8.720;2022-10-23T14:22:10;16.60;99.90
23815;DHT22;12088;53.078;8.720;2022-10-23T14:24:35;16.50;99.90
23815;DHT22;12088;53.078;8.720;2022-10-23T14:27:01;16.40;99.90
23815;DHT22;12088;53.078;8.720;2022-10-23T14:29:27;16.50;99.90
23815;DHT22;12088;53.078;8.720;2022-10-23T14:31:52;16.50;99.90
23815;DHT22;12088;53.078;8.720;2022-10-23T14:34:18;16.60;99.90
23815;DHT22;12088;53.078;8.720;2022-10-23T14:36:44;16.60;99.90
23815;DHT22;12088;53.078;8.720;2022-10-23T14:39:09;16.40;99.90
23815;DHT22;12088;53.078;8.720;2022-10-23T14:41:35;16.20;99.90
23815;DHT22;12088;53.078;8.720;2022-10-23T14:44:01;16.20;99.90
23815;DHT22;12088;53.078;8.720;2022-10-23T14:46:27;16.10;99.90
23815;DHT22;12088;53.078;8.720;2022-10-23T14:48:53;16.00;99.90
23815;DHT22;12088;53.078;8.720;2022-10-23T14:51:27;16.00;99.90
23815;DHT22;12088;53.078;8.720;2022-10-23T14:54:02;16.20;99.90
23815;DHT22;12088;53.078;8.720;2022-10-23T14:56:30;16.10;99.90
23815;DHT22;12088;53.078;8.720;2022-10-23T14:58:56;16.00;99.90
23815;DHT22;12088;53.078;8.720;2022-10-23T15:01:28;15.90;99.90
23815;DHT22;12088;53.078;8.720;2022-10-23T15:03:53;15.80;99.90
23815;DHT22;12088;53.078;8.720;2022-10-23T15:06:20;15.80;99.90
23815;DHT22;12088;53.078;8.720;2022-10-23T15:08:49;16.00;99.90
23815;DHT22;12088;53.078;8.720;2022-10-23T15:11:15;16.10;99.90
23815;DHT22;12088;53.078;8.720;2022-10-23T15:13:41;16.10;99.90
23815;DHT22;12088;53.078;8.720;2022-10-23T15:16:08;16.10;99.90
23815;DHT22;12088;53.078;8.720;2022-10-23T15:18:35;16.20;99.90
23815;DHT22;12088;53.078;8.720;2022-10-23T15:21:01;16.20;99.90
23815;DHT22;12088;53.078;8.720;2022-10-23T15:23:27;16.20;99.90
23815;DHT22;12088;53.078;8.720;2022-10-23T15:25:57;16.40;99.90
23815;DHT22;12088;53.078;8.720;2022-10-23T15:28:24;16.40;99.90
23815;DHT22;12088;53.078;8.720;2022-10-23T15:30:50;16.30;99.90
23815;DHT22;12088;53.078;8.720;2022-10-23T15:33:15;16.30;99.90
23815;DHT22;12088;53.078;8.720;2022-10-23T15:35:41;16.20;99.90
23815;DHT22;12088;53.078;8.720;2022-10-23T15:38:06;16.10;99.90
23815;DHT22;12088;53.078;8.720;2022-10-23T15:40:32;16.00;99.90
23815;DHT22;12088;53.078;8.720;2022-10-23T15:42:57;16.00;99.90
23815;DHT22;12088;53.078;8.720;2022-10-23T15:45:23;16.00;99.90
23815;DHT22;12088;53.078;8.720;2022-10-23T15:47:49;16.00;99.90
23815;DHT22;12088;53.078;8.720;2022-10-23T15:50:15;16.10;99.90
23815;DHT22;12088;53.078;8.720;2022-10-23T15:52:41;16.10;99.90
23815;DHT22;12088;53.078;8.720;2022-10-23T15:55:07;15.90;99.90
23815;DHT22;12088;53.078;8.720;2022-10-23T15:57:37;15.90;99.90
23815;DHT22;12088;53.078;8.720;2022-10-23T16:00:05;15.80;99.90
23815;DHT22;12088;53.078;8.720;2022-10-23T16:02:31;15.70;99.90
23815;DHT22;12088;53.078;8.720;2022-10-23T16:04:56;15.80;99.90
23815;DHT22;12088;53.078;8.720;2022-10-23T16:07:22;15.80;99.90
23815;DHT22;12088;53.078;8.720;2022-10-23T16:09:48;15.70;99.90
23815;DHT22;12088;53.078;8.720;2022-10-23T16:12:13;15.60;99.90
23815;DHT22;12088;53.078;8.720;2022-10-23T16:14:39;15.50;99.90
23815;DHT22;12088;53.078;8.720;2022-10-23T16:17:05;15.40;99.90
23815;DHT22;12088;53.078;8.720;2022-10-23T16:19:32;15.30;99.90
23815;DHT22;12088;53.078;8.720;2022-10-23T16:21:58;15.10;99.90
23815;DHT22;12088;53.078;8.720;2022-10-23T16:24:24;15.30;99.90
23815;DHT22;12088;53.078;8.720;2022-10-23T16:26:49;15.30;99.90
23815;DHT22;12088;53.078;8.720;2022-10-23T16:29:18;15.30;99.90
23815;DHT22;12088;53.078;8.720;2022-10-23T16:31:45;15.30;99.90
23815;DHT22;12088;53.078;8.720;2022-10-23T16:34:10;15.40;99.90
23815;DHT22;12088;53.078;8.720;2022-10-23T16:36:36;15.40;99.90
23815;DHT22;12088;53.078;8.720;2022-10-23T16:39:07;15.10;99.90
23815;DHT22;12088;53.078;8.720;2022-10-23T16:41:33;15.00;99.90
23815;DHT22;12088;53.078;8.720;2022-10-23T16:43:59;15.00;99.90
23815;DHT22;12088;53.078;8.720;2022-10-23T16:46:24;14.80;99.90
23815;DHT22;12088;53.078;8.720;2022-10-23T16:48:51;14.90;99.90
23815;DHT22;12088;53.078;8.720;2022-10-23T16:51:23;15.00;99.90
23815;DHT22;12088;53.078;8.720;2022-10-23T16:53:49;15.00;99.90
23815;DHT22;12088;53.078;8.720;2022-10-23T16:56:17;15.10;99.90
23815;DHT22;12088;53.078;8.720;2022-10-23T16:58:43;15.30;99.90
23815;DHT22;12088;53.078;8.720;2022-10-23T17:01:10;15.40;99.90
23815;DHT22;12088;53.078;8.720;2022-10-23T17:03:38;15.40;99.90
23815;DHT22;12088;53.078;8.720;2022-10-23T17:06:06;15.50;99.90
23815;DHT22;12088;53.078;8.720;2022-10-23T17:08:32;15.60;99.90
23815;DHT22;12088;53.078;8.720;2022-10-23T17:11:13;15.60;99.90
23815;DHT22;12088;53.078;8.720;2022-10-23T17:13:44;15.60;99.90
23815;DHT22;12088;53.078;8.720;2022-10-23T17:16:13;15.60;99.90
23815;DHT22;12088;53.078;8.720;2022-10-23T17:18:40;15.60;99.90
23815;DHT22;12088;53.078;8.720;2022-10-23T17:21:06;15.50;99.90
23815;DHT22;12088;53.078;8.720;2022-10-23T17:23:32;15.50;99.90
23815;DHT22;12088;53.078;8.720;2022-10-23T17:25:58;15.50;99.90
23815;DHT22;12088;53.078;8.720;2022-10-23T17:28:25;15.50;99.90
23815;DHT22;12088;53.078;8.720;2022-10-23T17:30:51;15.50;99.90
23815;DHT22;12088;53.078;8.720;2022-10-23T17:33:17;15.40;99.90